Time;durP1;ratioP1;P1;durP2;ratioP2;P2;SDS_P1;SDS_P2;PMS_P1;PMS_P2;Temp;Humidity;BMP_temperature;BMP_pressure;BME280_temperature;BME280_humidity;BME280_pressure;Samples;Min_cycle;Max_cycle;Signal;HPM_P1;HPM_P2
2023/08/25 00:00:30;;;;;;;25.45;20.00;;;;;;;21.10;87.88;92953.19;5067414;28;20252;-74
2023/08/25 00:02:55;;;;;;;20.55;18.55;;;;;;;21.07;88.11;92953.88;5069168;28;20227;-74
2023/08/25 00:05:21;;;;;;;22.65;20.35;;;;;;;20.95;87.88;92935.25;5068287;28;20256;-74
2023/08/25 00:07:46;;;;;;;21.00;18.85;;;;;;;20.98;88.59;92944.47;5067125;28;20210;-75
2023/08/25 00:10:13;;;;;;;21.77;19.58;;;;;;;21.17;88.16;92955.28;5068302;28;20229;-75
2023/08/25 00:12:38;;;;;;;22.65;20.25;;;;;;;21.18;87.99;92959.50;5069142;28;20190;-75
2023/08/25 00:15:05;;;;;;;21.23;18.42;;;;;;;21.12;88.16;92956.28;5068436;28;20241;-75
2023/08/25 00:17:31;;;;;;;21.65;19.48;;;;;;;21.12;88.87;92958.94;5068620;28;20199;-74
2023/08/25 00:19:56;;;;;;;23.50;21.23;;;;;;;21.13;89.18;92957.06;5066764;28;20247;-75
2023/08/25 00:22:22;;;;;;;22.10;20.08;;;;;;;21.10;89.24;92949.75;5066558;28;20211;-76
2023/08/25 00:24:47;;;;;;;22.20;20.00;;;;;;;21.04;90.75;92941.25;5069050;28;20189;-76
2023/08/25 00:27:13;;;;;;;22.67;20.45;;;;;;;21.05;91.33;92949.97;5077170;28;20229;-75
2023/08/25 00:29:38;;;;;;;23.50;21.30;;;;;;;21.11;91.11;92959.25;5068520;28;20284;-75
2023/08/25 00:32:04;;;;;;;24.23;21.73;;;;;;;21.10;91.66;92950.53;5069015;28;20230;-74
2023/08/25 00:34:29;;;;;;;22.08;19.92;;;;;;;21.12;91.36;92953.63;5071807;28;20223;-75
2023/08/25 00:36:54;;;;;;;23.23;20.90;;;;;;;21.13;91.97;92951.75;5069255;28;20214;-75
2023/08/25 00:39:20;;;;;;;23.13;20.85;;;;;;;20.98;92.35;92944.47;5070421;28;20195;-74
2023/08/25 00:41:45;;;;;;;22.02;19.77;;;;;;;20.98;92.69;92955.84;5067164;28;20223;-75
2023/08/25 00:44:11;;;;;;;23.45;21.17;;;;;;;20.98;93.37;92957.75;5071326;28;20189;-75
2023/08/25 00:46:37;;;;;;;22.27;20.02;;;;;;;21.10;92.42;92953.19;5079525;28;20232;-75
2023/08/25 00:49:03;;;;;;;25.02;22.50;;;;;;;20.93;93.28;92953.41;5075716;28;20189;-75
2023/08/25 00:51:29;;;;;;;25.38;22.30;;;;;;;20.92;94.27;92953.75;5070822;28;20216;-76
2023/08/25 00:53:54;;;;;;;24.05;21.73;;;;;;;20.90;94.85;92955.94;5072493;28;20193;-74
2023/08/25 00:56:20;;;;;;;23.98;21.67;;;;;;;20.55;95.51;92902.56;5071583;28;20307;-75
2023/08/25 00:58:45;;;;;;;23.42;21.15;;;;;;;20.91;95.75;92954.81;5072120;28;20208;-75
2023/08/25 01:01:12;;;;;;;22.98;20.77;;;;;;;20.88;96.58;92961.59;5071638;28;20290;-73
2023/08/25 01:03:39;;;;;;;23.20;20.80;;;;;;;21.06;95.37;92967.47;5082872;28;20924;-75
2023/08/25 01:06:05;;;;;;;23.75;21.40;;;;;;;20.92;96.79;92967.78;5065569;28;20240;-75
2023/08/25 01:08:32;;;;;;;24.27;21.88;;;;;;;20.75;97.93;92946.75;5071717;28;20186;-74
2023/08/25 01:11:14;;;;;;;24.10;21.75;;;;;;;20.94;97.34;92975.41;5070733;28;20229;-75
2023/08/25 01:14:01;;;;;;;24.08;21.67;;;;;;;20.99;97.01;92967.25;5070415;28;20250;-75
2023/08/25 01:16:35;;;;;;;25.77;21.45;;;;;;;20.86;97.99;92968.34;5059967;28;20240;-75
2023/08/25 01:19:04;;;;;;;23.67;21.42;;;;;;;20.99;97.25;92964.59;5082791;28;20272;-75
2023/08/25 01:21:34;;;;;;;24.48;22.00;;;;;;;21.02;96.99;92955.97;5070949;28;20320;-75
2023/08/25 01:24:28;;;;;;;23.42;20.92;;;;;;;20.98;97.42;92966.47;5070541;28;20203;-75
2023/08/25 01:26:56;;;;;;;22.40;19.98;;;;;;;21.10;96.70;92965.69;5066851;28;20247;-75
2023/08/25 01:29:22;;;;;;;22.60;20.33;;;;;;;21.02;96.77;92955.97;5071600;28;20193;-75
2023/08/25 01:31:47;;;;;;;22.95;20.63;;;;;;;21.08;96.33;92954.63;5070993;28;20225;-74
2023/08/25 01:34:13;;;;;;;22.38;20.08;;;;;;;20.98;97.13;92955.09;5071286;28;20185;-76
2023/08/25 01:37:03;;;;;;;26.23;22.00;;;;;;;21.05;96.87;92950.75;5062192;28;20213;-76
2023/08/25 01:39:31;;;;;;;21.83;19.63;;;;;;;21.02;96.85;92948.78;5071846;28;20183;-75
2023/08/25 01:42:00;;;;;;;23.10;20.70;;;;;;;21.00;96.74;92953.63;5071041;28;20261;-76
2023/08/25 01:44:27;;;;;;;23.67;21.27;;;;;;;20.79;97.42;92941.56;5070462;28;20181;-75
2023/08/25 01:47:05;;;;;;;23.33;20.95;;;;;;;20.66;98.09;92948.75;5070819;28;20222;-75
2023/08/25 01:49:32;;;;;;;22.05;19.85;;;;;;;20.58;98.54;92944.34;5071215;28;20245;-75
2023/08/25 01:51:59;;;;;;;22.67;20.17;;;;;;;20.77;97.44;92959.69;5069792;28;20233;-76
2023/08/25 01:54:24;;;;;;;22.17;19.92;;;;;;;20.79;97.43;92952.97;5071663;28;20186;-75
2023/08/25 01:56:50;;;;;;;23.08;20.77;;;;;;;20.78;96.97;92954.06;5069435;28;20222;-75
2023/08/25 01:59:15;;;;;;;21.65;19.52;;;;;;;20.68;97.25;92949.97;5071048;28;20192;-74
2023/08/25 02:01:41;;;;;;;24.23;21.75;;;;;;;20.63;97.84;92947.56;5070562;28;20249;-75
2023/08/25 02:04:06;;;;;;;22.42;20.23;;;;;;;20.69;97.80;92943.56;5070960;28;20197;-75
2023/08/25 02:06:32;;;;;;;22.63;20.42;;;;;;;20.72;97.52;92938.72;5070241;28;20316;-76
2023/08/25 02:08:58;;;;;;;22.25;20.08;;;;;;;20.58;98.01;92926.53;5071462;28;20197;-76
2023/08/25 02:11:23;;;;;;;22.45;20.13;;;;;;;20.59;98.13;92938.69;5070346;28;20236;-75
2023/08/25 02:13:49;;;;;;;23.77;20.35;;;;;;;20.42;97.38;92925.66;5069516;28;20193;-75
2023/08/25 02:16:14;;;;;;;21.48;19.33;;;;;;;20.58;98.02;92947.78;5068936;28;20761;-75
2023/08/25 02:18:40;;;;;;;21.63;19.48;;;;;;;20.59;96.65;92951.97;5068960;28;20190;-75
2023/08/25 02:21:06;;;;;;;22.70;20.17;;;;;;;20.49;97.92;92955.06;5068646;28;20229;-75
2023/08/25 02:23:31;;;;;;;23.13;20.83;;;;;;;20.48;97.69;92958.81;5070846;28;20902;-75
2023/08/25 02:25:56;;;;;;;22.13;19.80;;;;;;;20.44;96.83;92962.44;5050283;28;20804;-76
2023/08/25 02:28:22;;;;;;;22.17;20.08;;;;;;;20.50;96.95;92961.13;5061986;28;20192;-76
2023/08/25 02:30:47;;;;;;;19.48;17.40;;;;;;;20.43;96.95;92961.69;5070070;28;20238;-76
2023/08/25 02:33:13;;;;;;;20.58;18.33;;;;;;;20.49;96.52;92957.72;5069826;28;20194;-76
2023/08/25 02:35:39;;;;;;;24.90;18.88;;;;;;;20.53;97.43;92958.59;5068817;28;20241;-76
2023/08/25 02:38:10;;;;;;;23.83;21.20;;;;;;;20.49;97.41;92955.06;5070321;28;20918;-76
2023/08/25 02:40:37;;;;;;;22.38;19.27;;;;;;;20.51;96.78;92960.78;5081354;28;20224;-76
2023/08/25 02:43:04;;;;;;;20.25;18.02;;;;;;;20.38;97.21;92955.81;5070111;28;20219;-76
2023/08/25 02:45:30;;;;;;;23.77;18.15;;;;;;;20.33;97.84;92956.81;5077289;28;20270;-77
2023/08/25 02:47:56;;;;;;;20.10;18.15;;;;;;;20.27;97.90;92957.34;5085040;28;20193;-76
2023/08/25 02:50:22;;;;;;;19.63;17.63;;;;;;;20.37;97.32;92956.94;5069441;28;20230;-76
2023/08/25 02:52:48;;;;;;;19.45;17.45;;;;;;;20.29;97.23;92969.19;5070158;28;20874;-76
2023/08/25 02:55:16;;;;;;;20.23;18.25;;;;;;;20.12;98.80;92972.00;5068649;28;20225;-76
2023/08/25 02:57:51;;;;;;;20.55;18.35;;;;;;;20.17;98.49;92973.69;5069788;28;20219;-77
2023/08/25 03:00:23;;;;;;;22.63;20.23;;;;;;;20.15;98.83;92979.31;5057730;28;20231;-76
2023/08/25 03:02:49;;;;;;;21.65;17.92;;;;;;;20.08;100.00;92975.59;5067961;28;20185;-76
2023/08/25 03:05:14;;;;;;;21.75;19.60;;;;;;;20.13;99.42;92978.88;5067683;28;20229;-76
2023/08/25 03:07:40;;;;;;;21.25;19.20;;;;;;;20.03;99.23;92958.03;5056861;28;20234;-76
2023/08/25 03:10:07;;;;;;;20.50;18.45;;;;;;;20.12;99.93;92977.28;5069461;28;20231;-75
2023/08/25 03:12:33;;;;;;;21.58;19.33;;;;;;;20.13;99.17;92962.97;5069482;28;20185;-77
2023/08/25 03:14:58;;;;;;;22.00;19.70;;;;;;;20.20;99.44;92973.78;5069373;28;20210;-77
2023/08/25 03:17:25;;;;;;;21.58;19.35;;;;;;;20.13;99.65;92970.91;5067856;28;20200;-75
2023/08/25 03:19:50;;;;;;;20.85;18.80;;;;;;;20.17;99.58;92984.28;5067873;28;20180;-76
2023/08/25 03:22:16;;;;;;;19.60;17.77;;;;;;;19.94;99.86;92973.25;5069397;28;20185;-76
2023/08/25 03:24:41;;;;;;;19.07;17.00;;;;;;;20.02;99.72;92993.59;5069858;28;20223;-76
2023/08/25 03:27:06;;;;;;;18.40;16.60;;;;;;;20.02;98.97;92990.94;5068637;28;20238;-76
2023/08/25 03:29:32;;;;;;;18.65;16.77;;;;;;;19.98;98.13;92991.94;5077541;28;20255;-76
2023/08/25 03:31:58;;;;;;;17.30;15.80;;;;;;;19.95;97.95;92984.63;5071092;28;20230;-75
2023/08/25 03:34:24;;;;;;;18.92;16.48;;;;;;;19.87;98.52;92996.88;5069018;28;20189;-76
2023/08/25 03:36:49;;;;;;;16.23;14.82;;;;;;;19.95;98.28;92993.38;5068927;28;20401;-77
2023/08/25 03:39:15;;;;;;;16.13;14.65;;;;;;;19.93;97.70;92992.91;5069337;28;20217;-75
2023/08/25 03:41:40;;;;;;;15.65;14.27;;;;;;;19.93;97.28;92989.47;5068779;28;20224;-75
2023/08/25 03:44:06;;;;;;;20.23;16.70;;;;;;;19.95;97.44;92997.88;5069434;28;20185;-76
2023/08/25 03:46:32;;;;;;;17.63;15.70;;;;;;;19.88;97.30;92981.72;5064256;28;20224;-75
2023/08/25 03:48:58;;;;;;;18.90;14.77;;;;;;;19.67;98.92;92970.38;5059670;28;20219;-76
2023/08/25 03:51:23;;;;;;;15.82;14.43;;;;;;;19.86;97.28;92987.34;5067562;28;20279;-76
2023/08/25 03:53:49;;;;;;;16.58;14.85;;;;;;;19.93;97.11;92981.53;5069513;28;20189;-76
2023/08/25 03:56:14;;;;;;;16.17;14.57;;;;;;;19.90;98.43;92996.22;5068756;28;20220;-76
2023/08/25 03:58:40;;;;;;;16.23;14.82;;;;;;;19.90;97.25;92979.53;5069218;28;20186;-76
2023/08/25 04:01:05;;;;;;;15.40;14.20;;;;;;;19.88;95.88;92977.22;5074595;28;20317;-76
2023/08/25 04:03:30;;;;;;;15.70;14.00;;;;;;;20.02;95.44;92998.91;5068648;28;20201;-76
2023/08/25 04:05:56;;;;;;;15.25;13.95;;;;;;;20.10;94.40;92997.25;5068640;28;20224;-76
2023/08/25 04:08:21;;;;;;;16.23;13.48;;;;;;;20.07;96.53;93001.34;5072041;28;20192;-75
2023/08/25 04:10:47;;;;;;;15.75;14.23;;;;;;;20.05;97.65;93008.84;5072744;28;20210;-76
2023/08/25 04:13:13;;;;;;;15.50;14.18;;;;;;;20.22;94.85;93003.41;5073161;28;20246;-76
2023/08/25 04:15:38;;;;;;;14.63;13.30;;;;;;;20.32;94.03;93004.88;5072342;28;20231;-76
2023/08/25 04:18:05;;;;;;;16.85;14.40;;;;;;;20.22;95.16;93013.22;5068740;28;20212;-76
2023/08/25 04:20:31;;;;;;;14.63;13.30;;;;;;;20.22;94.33;93002.63;5069848;28;20210;-75
2023/08/25 04:22:56;;;;;;;14.80;13.25;;;;;;;20.43;93.14;93009.44;5078881;28;20192;-75
2023/08/25 04:25:21;;;;;;;14.77;13.27;;;;;;;20.47;93.88;93005.00;5079819;28;20287;-75
2023/08/25 04:27:47;;;;;;;14.63;13.20;;;;;;;20.59;94.15;92998.97;5072525;28;20240;-75
2023/08/25 04:30:12;;;;;;;15.57;14.13;;;;;;;20.58;94.26;93005.34;5070715;28;20235;-74
2023/08/25 04:32:38;;;;;;;16.25;14.63;;;;;;;20.65;93.26;93000.28;5076065;28;20238;-74
2023/08/25 04:35:03;;;;;;;16.27;14.73;;;;;;;20.84;92.70;92999.75;5062022;28;20237;-75
2023/08/25 04:37:29;;;;;;;15.57;14.20;;;;;;;20.81;92.70;93008.38;5064725;28;20183;-76
2023/08/25 04:39:55;;;;;;;15.02;13.52;;;;;;;20.78;92.43;92982.50;5066748;28;20193;-76
2023/08/25 04:42:22;;;;;;;14.70;13.50;;;;;;;21.01;91.67;93018.13;5063538;28;20190;-76
2023/08/25 04:44:48;;;;;;;22.40;19.98;;;;;;;21.04;92.28;93015.59;5063342;28;20186;-75
2023/08/25 04:47:15;;;;;;;20.05;17.92;;;;;;;21.06;91.62;93016.03;5055566;28;20221;-75
2023/08/25 04:49:40;;;;;;;23.98;20.80;;;;;;;21.20;92.38;93031.63;5065084;28;20239;-75
2023/08/25 04:52:06;;;;;;;20.92;18.38;;;;;;;21.18;92.45;93031.97;5070972;28;20226;-75
2023/08/25 04:54:31;;;;;;;23.33;20.90;;;;;;;21.25;93.10;93039.34;5058955;28;20195;-75
2023/08/25 04:56:57;;;;;;;23.00;20.45;;;;;;;21.41;91.74;93042.91;5070810;28;20233;-73
2023/08/25 04:59:23;;;;;;;27.42;22.90;;;;;;;21.55;90.14;93038.78;5066431;28;20190;-74
2023/08/25 05:01:49;;;;;;;30.25;21.77;;;;;;;21.38;91.73;93035.59;5064110;28;21187;-75
2023/08/25 05:04:14;;;;;;;30.13;23.80;;;;;;;21.39;91.90;93035.25;5066147;28;20189;-76
2023/08/25 05:06:40;;;;;;;33.63;23.15;;;;;;;21.60;91.26;93062.47;5058315;28;20226;-74
2023/08/25 05:09:05;;;;;;;27.20;24.30;;;;;;;21.80;90.06;93058.13;5065373;28;21019;-74
2023/08/25 05:11:33;;;;;;;34.08;25.40;;;;;;;21.60;90.67;93037.78;5066364;28;20234;-75
2023/08/25 05:13:59;;;;;;;32.28;24.05;;;;;;;21.54;91.58;93045.19;5061523;28;20186;-75
2023/08/25 05:16:24;;;;;;;29.48;24.45;;;;;;;21.73;90.82;93045.38;5065917;28;20240;-75
2023/08/25 05:18:50;;;;;;;31.83;25.50;;;;;;;21.60;91.95;93056.38;5068718;28;20976;-75
2023/08/25 05:21:15;;;;;;;34.63;24.65;;;;;;;21.79;90.52;93043.31;5067950;28;20245;-74
2023/08/25 05:23:43;;;;;;;30.23;26.30;;;;;;;21.94;90.71;93066.53;5069054;28;20191;-74
2023/08/25 05:26:08;;;;;;;30.70;25.17;;;;;;;22.18;89.36;93059.22;5065744;28;20261;-74
2023/08/25 05:28:34;;;;;;;30.90;25.00;;;;;;;22.05;90.56;93065.69;5060823;28;20192;-74
2023/08/25 05:30:59;;;;;;;28.48;25.02;;;;;;;22.22;89.95;93072.63;5052336;28;20222;-74
2023/08/25 05:33:24;;;;;;;41.17;25.90;;;;;;;22.15;89.64;93065.22;5063484;28;20195;-74
2023/08/25 05:35:50;;;;;;;29.05;25.50;;;;;;;21.99;90.63;93068.94;5063920;28;20223;-74
2023/08/25 05:38:15;;;;;;;35.95;26.00;;;;;;;21.87;92.08;93071.63;5062870;28;20191;-75
2023/08/25 05:40:41;;;;;;;29.10;24.60;;;;;;;22.21;89.92;93066.53;5052453;28;20287;-78
2023/08/25 05:43:06;;;;;;;32.17;26.35;;;;;;;22.62;88.09;93075.25;5060860;28;20175;-76
2023/08/25 05:45:31;;;;;;;32.33;27.25;;;;;;;22.13;89.69;93054.16;5069069;28;20772;-74
2023/08/25 05:47:57;;;;;;;30.65;26.83;;;;;;;22.36;89.55;93065.03;5065417;28;20216;-75
2023/08/25 05:50:22;;;;;;;29.58;25.10;;;;;;;22.73;87.08;93068.31;5063576;28;20230;-87
2023/08/25 05:52:48;;;;;;;33.75;26.40;;;;;;;22.72;86.97;93064.09;5063347;28;20215;-85
2023/08/25 05:55:13;;;;;;;29.38;25.00;;;;;;;22.98;86.06;93051.06;5057531;28;20224;-80
2023/08/25 05:57:39;;;;;;;31.65;26.05;;;;;;;23.60;83.18;93056.34;5077149;28;20196;-80
2023/08/25 06:00:06;;;;;;;28.13;24.80;;;;;;;24.48;78.52;93058.19;5068655;28;20200;-80
2023/08/25 06:02:32;;;;;;;31.30;25.98;;;;;;;25.37;73.35;93055.97;5063784;28;20198;-79
2023/08/25 06:04:58;;;;;;;29.75;25.58;;;;;;;25.64;71.74;93077.00;5072055;28;20200;-81
2023/08/25 06:07:23;;;;;;;31.38;23.02;;;;;;;28.25;62.89;93081.25;5062045;28;20215;-82
2023/08/25 06:09:48;;;;;;;28.65;25.60;;;;;;;29.06;59.23;93085.03;5065494;28;20189;-76
2023/08/25 06:12:14;;;;;;;26.95;24.05;;;;;;;26.70;66.33;93068.47;5054776;28;20204;-77
2023/08/25 06:14:39;;;;;;;26.38;21.38;;;;;;;26.81;66.24;93073.94;5060868;28;20181;-79
2023/08/25 06:17:05;;;;;;;27.27;24.38;;;;;;;24.97;73.83;93056.44;5060715;28;20231;-79
2023/08/25 06:19:30;;;;;;;26.77;23.88;;;;;;;24.39;76.93;93057.66;5060314;28;20181;-79
2023/08/25 06:21:56;;;;;;;30.00;24.02;;;;;;;24.55;76.68;93064.44;5052911;28;20236;-82
2023/08/25 06:24:21;;;;;;;26.73;23.95;;;;;;;24.73;76.03;93060.22;5058059;28;20189;-82
2023/08/25 06:26:47;;;;;;;26.83;24.00;;;;;;;24.61;75.67;93052.34;5058825;28;20225;-82
2023/08/25 06:29:13;;;;;;;26.88;22.85;;;;;;;24.69;76.47;93045.25;5063078;28;20227;-81
2023/08/25 06:31:38;;;;;;;25.85;23.05;;;;;;;24.73;75.86;93044.19;5062311;28;20287;-83
2023/08/25 06:34:04;;;;;;;25.30;22.40;;;;;;;24.19;77.87;93056.13;5059698;28;21103;-81
2023/08/25 06:36:32;;;;;;;24.83;22.02;;;;;;;24.08;78.88;93047.13;5056239;28;20237;-79
2023/08/25 06:38:58;;;;;;;32.53;21.80;;;;;;;24.81;76.70;93056.53;5069231;28;20194;-76
2023/08/25 06:41:24;;;;;;;25.95;22.02;;;;;;;25.07;74.43;93058.53;5063447;28;20217;-82
2023/08/25 06:43:49;;;;;;;25.85;21.73;;;;;;;25.05;75.22;93063.44;5064320;28;20189;-80
2023/08/25 06:46:15;;;;;;;23.85;21.00;;;;;;;;;;5062665;28;20248;-81
2023/08/25 06:48:40;;;;;;;27.55;21.30;;;;;;;24.91;75.27;93066.66;5063692;28;20186;-82
2023/08/25 06:51:05;;;;;;;24.17;21.65;;;;;;;25.19;74.39;93061.00;5074416;28;20252;-80
2023/08/25 06:53:31;;;;;;;43.60;22.83;;;;;;;25.37;73.09;93066.66;5067293;28;20219;-80
2023/08/25 06:55:56;;;;;;;32.88;21.10;;;;;;;25.46;72.83;93061.84;5053281;28;20268;-80
2023/08/25 06:58:22;;;;;;;24.58;19.83;;;;;;;25.48;73.24;93062.25;5065142;28;20188;-79
2023/08/25 07:00:47;;;;;;;24.48;20.83;;;;;;;25.34;72.62;93072.72;5068689;28;20228;-80
2023/08/25 07:03:13;;;;;;;24.35;19.77;;;;;;;25.35;72.42;93053.66;5081250;28;20180;-80
2023/08/25 07:05:38;;;;;;;26.33;19.83;;;;;;;24.95;74.51;93048.03;5055462;28;20220;-79
2023/08/25 07:08:07;;;;;;;24.83;19.98;;;;;;;25.31;73.05;93068.81;5071746;28;20190;-79
2023/08/25 07:10:33;;;;;;;22.58;20.00;;;;;;;25.46;72.22;93081.34;5073155;28;20223;-82
2023/08/25 07:13:00;;;;;;;26.95;20.90;;;;;;;25.63;71.88;93072.81;5067683;28;20215;-85
2023/08/25 07:15:25;;;;;;;24.38;20.02;;;;;;;25.70;70.67;93070.22;5066305;28;20256;-84
2023/08/25 07:17:50;;;;;;;26.60;19.98;;;;;;;25.77;70.88;93064.22;5066196;28;20197;-86
2023/08/25 07:20:16;;;;;;;23.00;19.25;;;;;;;25.95;69.84;93052.59;5069151;28;20282;-86
2023/08/25 07:22:41;;;;;;;22.40;19.63;;;;;;;25.82;70.58;93072.69;5069289;28;20177;-87
2023/08/25 07:25:07;;;;;;;21.70;19.08;;;;;;;26.14;69.24;93079.28;5063768;28;21704;-84
2023/08/25 07:27:32;;;;;;;20.67;18.60;;;;;;;25.47;71.44;93087.44;5069150;28;20208;-83
2023/08/25 07:29:58;;;;;;;21.05;18.85;;;;;;;25.86;70.91;93078.88;5063935;28;20218;-88
2023/08/25 07:32:24;;;;;;;23.20;19.13;;;;;;;25.42;71.05;93059.09;5063992;28;20254;-87
2023/08/25 07:34:49;;;;;;;22.15;19.85;;;;;;;26.08;69.37;93080.72;5062674;28;20474;-85
2023/08/25 07:37:15;;;;;;;32.20;19.80;;;;;;;26.18;69.90;93088.13;5069016;28;20197;-86
2023/08/25 07:39:41;;;;;;;20.13;18.05;;;;;;;25.95;70.10;93086.63;5064066;28;20190;-79
2023/08/25 07:42:08;;;;;;;21.10;18.98;;;;;;;26.10;69.39;93086.47;5062742;28;20321;-80
2023/08/25 07:44:35;;;;;;;22.40;20.00;;;;;;;25.96;69.45;93091.59;5063312;28;20216;-79
2023/08/25 07:47:00;;;;;;;21.83;18.52;;;;;;;25.96;69.98;93086.25;5069092;28;20233;-81
2023/08/25 07:49:26;;;;;;;20.13;18.00;;;;;;;26.05;69.45;93086.03;5066141;28;20204;-81
2023/08/25 07:51:51;;;;;;;22.65;20.27;;;;;;;25.98;68.89;93092.03;5054851;28;20214;-79
2023/08/25 07:54:16;;;;;;;20.05;18.15;;;;;;;25.90;70.18;93098.41;5061943;28;20185;-80
2023/08/25 07:56:42;;;;;;;23.63;19.35;;;;;;;25.98;68.39;93086.66;5068346;28;20236;-79
2023/08/25 07:59:07;;;;;;;22.25;19.02;;;;;;;25.98;68.81;93086.66;5072411;28;20173;-80
2023/08/25 08:01:33;;;;;;;19.90;17.63;;;;;;;25.91;68.29;93086.59;5068564;28;20225;-81
2023/08/25 08:03:58;;;;;;;21.02;16.95;;;;;;;26.03;69.07;93089.06;5069190;28;20194;-79
2023/08/25 08:06:24;;;;;;;18.65;16.88;;;;;;;26.04;67.80;93095.22;5067649;28;20227;-80
2023/08/25 08:08:49;;;;;;;20.30;18.13;;;;;;;26.11;68.31;93080.00;5069009;28;20189;-77
2023/08/25 08:11:14;;;;;;;18.52;16.73;;;;;;;26.35;67.82;93094.84;5067856;28;20241;-78
2023/08/25 08:13:40;;;;;;;26.77;18.10;;;;;;;26.43;66.73;93091.88;5068922;28;20189;-77
2023/08/25 08:16:05;;;;;;;22.25;17.40;;;;;;;26.40;65.92;93092.59;5068498;28;20240;-78
2023/08/25 08:18:31;;;;;;;17.70;16.02;;;;;;;26.27;64.60;93093.97;5076167;28;20203;-81
2023/08/25 08:20:56;;;;;;;19.10;17.00;;;;;;;26.74;64.57;93091.50;5074915;28;20217;-78
2023/08/25 08:23:23;;;;;;;16.83;15.32;;;;;;;26.32;62.09;93082.94;5068129;28;20181;-80
2023/08/25 08:25:49;;;;;;;16.98;15.20;;;;;;;26.41;61.04;93094.13;5072369;28;20221;-77
2023/08/25 08:28:15;;;;;;;16.00;14.43;;;;;;;26.57;59.43;93089.34;5067676;28;20257;-78
2023/08/25 08:30:41;;;;;;;12.05;10.82;;;;;;;26.59;52.00;93079.06;5067212;28;20225;-80
2023/08/25 08:33:07;;;;;;;14.43;13.05;;;;;;;26.65;54.33;93076.84;5068910;28;20245;-79
2023/08/25 08:35:33;;;;;;;13.23;12.02;;;;;;;26.79;56.09;93078.91;5066866;28;20231;-79
2023/08/25 08:37:58;;;;;;;12.75;11.60;;;;;;;26.86;53.48;93073.63;5068783;28;20272;-78
2023/08/25 08:40:24;;;;;;;13.18;11.77;;;;;;;27.17;53.34;93076.59;5068019;28;20217;-80
2023/08/25 08:42:54;;;;;;;13.70;12.35;;;;;;;27.55;52.92;93068.13;5061814;28;20746;-79
2023/08/25 08:45:24;;;;;;;13.90;12.45;;;;;;;27.30;53.29;93074.44;5057791;28;20377;-79
2023/08/25 08:47:50;;;;;;;12.60;11.32;;;;;;;27.07;52.59;93074.59;5068692;28;20205;-79
2023/08/25 08:50:16;;;;;;;12.13;11.15;;;;;;;26.94;51.68;93062.63;5056528;28;20242;-79
2023/08/25 08:52:44;;;;;;;12.88;11.82;;;;;;;26.97;52.02;93072.59;5072381;28;20180;-80
2023/08/25 08:55:10;;;;;;;14.20;12.80;;;;;;;27.29;52.41;93067.53;5069653;28;20707;-80
2023/08/25 08:57:36;;;;;;;12.35;11.25;;;;;;;27.38;51.46;93068.00;5072298;28;20182;-80
2023/08/25 09:00:09;;;;;;;13.68;11.73;;;;;;;27.75;50.67;93069.41;5065970;28;20181;-78
2023/08/25 09:02:35;;;;;;;12.70;10.95;;;;;;;27.71;49.94;93070.53;5065400;28;20178;-76
2023/08/25 09:05:02;;;;;;;12.32;10.98;;;;;;;27.74;49.62;93048.31;5071798;28;20207;-79
2023/08/25 09:07:31;;;;;;;11.93;10.82;;;;;;;27.76;48.98;93051.41;5066933;28;20210;-77
2023/08/25 09:09:58;;;;;;;11.55;10.65;;;;;;;27.99;48.59;93049.25;5080488;28;20292;-76
2023/08/25 09:12:23;;;;;;;12.82;11.82;;;;;;;28.18;48.13;93060.50;5069556;28;20945;-80
2023/08/25 09:14:49;;;;;;;12.95;11.88;;;;;;;27.89;48.89;93050.00;5070486;28;20181;-76
2023/08/25 09:17:15;;;;;;;12.60;11.50;;;;;;;27.08;49.68;93038.63;5072943;28;20194;-77
2023/08/25 09:19:41;;;;;;;14.93;11.40;;;;;;;26.82;50.73;93044.09;5073198;28;20185;-78
2023/08/25 09:22:11;;;;;;;12.13;11.13;;;;;;;27.30;50.41;93047.63;5071872;28;20254;-77
2023/08/25 09:24:38;;;;;;;12.85;11.52;;;;;;;27.77;48.54;93051.03;5070633;28;20294;-77
2023/08/25 09:27:04;;;;;;;12.90;11.80;;;;;;;27.82;46.26;93044.53;5058365;28;20293;-79
2023/08/25 09:29:42;;;;;;;12.57;11.70;;;;;;;28.19;46.01;93032.50;5068399;28;20202;-77
2023/08/25 09:32:14;;;;;;;13.80;12.38;;;;;;;28.18;46.54;93022.13;5062384;28;20225;-79
2023/08/25 09:34:39;;;;;;;13.38;12.18;;;;;;;28.28;47.06;93038.28;5069674;28;20231;-78
2023/08/25 09:37:04;;;;;;;14.73;13.45;;;;;;;28.06;47.23;93025.16;5081364;28;20245;-81
2023/08/25 09:39:42;;;;;;;12.85;11.77;;;;;;;28.57;44.57;93028.44;5061381;28;20190;-80
2023/08/25 09:42:07;;;;;;;12.82;11.65;;;;;;;28.41;44.82;93017.22;5067340;28;20225;-81
2023/08/25 09:44:33;;;;;;;12.88;11.65;;;;;;;28.28;45.52;93024.84;5060550;28;20191;-80
2023/08/25 09:46:59;;;;;;;12.48;11.52;;;;;;;28.10;46.40;93031.28;5057093;28;20316;-79
2023/08/25 09:49:24;;;;;;;12.77;11.88;;;;;;;28.30;46.01;93007.59;5064161;28;20193;-81
2023/08/25 09:51:52;;;;;;;13.32;12.13;;;;;;;28.28;45.48;93016.03;5068498;28;21031;-78
2023/08/25 09:54:18;;;;;;;12.88;11.77;;;;;;;28.30;44.03;93019.09;5066301;28;20178;-77
2023/08/25 09:56:46;;;;;;;12.13;11.15;;;;;;;28.14;44.47;93010.63;5068288;28;20292;-82
2023/08/25 09:59:13;;;;;;;12.48;11.27;;;;;;;28.40;43.47;93015.69;5067515;28;20193;-76
2023/08/25 10:01:42;;;;;;;13.23;11.95;;;;;;;28.39;45.56;93006.06;5057646;28;20227;-80
2023/08/25 10:04:07;;;;;;;12.80;11.70;;;;;;;27.72;44.93;92996.94;5065410;28;20191;-77
2023/08/25 10:06:37;;;;;;;12.43;11.43;;;;;;;27.97;45.78;92992.50;5073760;28;20237;-78
2023/08/25 10:09:03;;;;;;;12.75;11.52;;;;;;;28.62;44.21;92998.50;5063289;28;20190;-83
2023/08/25 10:11:35;;;;;;;15.45;11.13;;;;;;;28.97;43.67;93000.47;5069290;28;20233;-84
2023/08/25 10:14:04;;;;;;;12.02;10.93;;;;;;;29.08;42.92;92996.66;5065115;28;20198;-81
2023/08/25 10:16:36;;;;;;;14.40;11.48;;;;;;;29.08;42.81;92987.81;5070431;28;20224;-85
2023/08/25 10:19:04;;;;;;;13.02;11.80;;;;;;;28.99;42.65;92996.25;5059294;28;20180;-83
2023/08/25 10:21:31;;;;;;;11.45;10.38;;;;;;;28.82;45.02;92994.31;5065388;28;20234;-84
2023/08/25 10:23:59;;;;;;;13.18;11.48;;;;;;;28.84;45.36;92992.00;5064113;28;20177;-80
2023/08/25 10:26:25;;;;;;;11.77;10.52;;;;;;;28.89;42.98;92985.50;5055003;28;20653;-81
2023/08/25 10:28:52;;;;;;;11.93;11.02;;;;;;;29.11;41.09;92990.53;5066228;28;20205;-78
2023/08/25 10:31:18;;;;;;;11.88;10.82;;;;;;;29.04;41.10;92974.38;5065280;28;20223;-78
2023/08/25 10:33:52;;;;;;;11.57;10.55;;;;;;;29.32;40.62;92982.47;5061098;28;20189;-78
2023/08/25 10:36:19;;;;;;;12.85;11.70;;;;;;;29.32;41.34;92987.84;5064617;28;20255;-78
2023/08/25 10:39:06;;;;;;;11.70;10.60;;;;;;;29.18;41.58;92960.94;5068077;28;20206;-84
2023/08/25 10:41:39;;;;;;;11.85;10.68;;;;;;;29.26;42.28;92970.53;5077263;28;20311;-80
2023/08/25 10:44:08;;;;;;;11.93;10.82;;;;;;;29.52;41.26;92978.22;5065136;28;20257;-79
2023/08/25 10:46:34;;;;;;;12.18;11.25;;;;;;;29.65;39.81;92968.59;5056968;28;20232;-80
2023/08/25 10:49:06;;;;;;;15.00;10.63;;;;;;;29.48;41.04;92974.00;5061411;28;20206;-81
2023/08/25 10:51:33;;;;;;;11.38;10.35;;;;;;;29.56;41.09;92981.66;5063892;28;20224;-80
2023/08/25 10:53:59;;;;;;;11.95;10.90;;;;;;;29.68;39.91;92967.81;5053689;28;20219;-81
2023/08/25 10:56:26;;;;;;;11.65;10.70;;;;;;;29.50;40.71;92974.34;5055934;28;20216;-80
2023/08/25 10:59:05;;;;;;;12.07;11.05;;;;;;;29.31;41.66;92972.84;5063792;28;20894;-80
2023/08/25 11:01:37;;;;;;;10.45;9.45;;;;;;;29.23;38.72;92978.63;5060392;28;20226;-81
2023/08/25 11:04:06;;;;;;;9.82;8.98;;;;;;;29.08;38.19;92971.69;5049131;28;20239;-81
2023/08/25 11:06:46;;;;;;;10.45;9.57;;;;;;;29.38;38.00;92974.75;5056799;28;20280;-79
2023/08/25 11:09:20;;;;;;;12.77;10.07;;;;;;;29.03;39.10;92970.13;5056658;28;20203;-80
2023/08/25 11:11:54;;;;;;;12.10;10.82;;;;;;;29.08;40.28;92959.03;5051152;28;20222;-79
2023/08/25 11:14:20;;;;;;;11.23;10.20;;;;;;;29.09;40.53;92960.53;5062770;28;20220;-80